sensor_id;sensor_type;location;lat;lon;timestamp;P1;durP1;ratioP1;P2;durP2;ratioP2
52972;SDS011;38837;48.916;2.336;2023-12-07T00:00:08;13.70;;;6.43;;
52972;SDS011;38837;48.916;2.336;2023-12-07T00:02:11;10.37;;;7.37;;
52972;SDS011;38837;48.916;2.336;2023-12-07T00:04:14;9.88;;;7.03;;
52972;SDS011;38837;48.916;2.336;2023-12-07T00:06:16;11.60;;;6.45;;
52972;SDS011;38837;48.916;2.336;2023-12-07T00:08:18;9.98;;;6.72;;
52972;SDS011;38837;48.916;2.336;2023-12-07T00:10:20;9.38;;;6.55;;
52972;SDS011;38837;48.916;2.336;2023-12-07T00:12:22;12.35;;;7.07;;
52972;SDS011;38837;48.916;2.336;2023-12-07T00:14:24;9.35;;;6.88;;
52972;SDS011;38837;48.916;2.336;2023-12-07T00:16:26;11.95;;;7.10;;
52972;SDS011;38837;48.916;2.336;2023-12-07T00:18:28;10.40;;;6.45;;
52972;SDS011;38837;48.916;2.336;2023-12-07T00:20:30;12.40;;;7.32;;
52972;SDS011;38837;48.916;2.336;2023-12-07T00:22:32;10.57;;;7.30;;
52972;SDS011;38837;48.916;2.336;2023-12-07T00:24:34;12.50;;;6.72;;
52972;SDS011;38837;48.916;2.336;2023-12-07T00:26:36;11.75;;;6.60;;
52972;SDS011;38837;48.916;2.336;2023-12-07T00:28:39;10.90;;;6.75;;
52972;SDS011;38837;48.916;2.336;2023-12-07T00:30:41;10.95;;;6.55;;
52972;SDS011;38837;48.916;2.336;2023-12-07T00:32:43;10.85;;;7.07;;
52972;SDS011;38837;48.916;2.336;2023-12-07T00:34:45;8.48;;;6.35;;
52972;SDS011;38837;48.916;2.336;2023-12-07T00:36:47;10.70;;;6.93;;
52972;SDS011;38837;48.916;2.336;2023-12-07T00:38:49;10.73;;;6.90;;
52972;SDS011;38837;48.916;2.336;2023-12-07T00:40:51;10.25;;;6.85;;
52972;SDS011;38837;48.916;2.336;2023-12-07T00:42:53;9.20;;;6.95;;
52972;SDS011;38837;48.916;2.336;2023-12-07T00:44:55;10.25;;;6.85;;
52972;SDS011;38837;48.916;2.336;2023-12-07T00:46:57;10.07;;;6.55;;
52972;SDS011;38837;48.916;2.336;2023-12-07T00:48:59;9.95;;;6.28;;
52972;SDS011;38837;48.916;2.336;2023-12-07T00:51:02;10.65;;;7.13;;
52972;SDS011;38837;48.916;2.336;2023-12-07T00:53:04;10.25;;;6.45;;
52972;SDS011;38837;48.916;2.336;2023-12-07T00:55:06;11.93;;;6.65;;
52972;SDS011;38837;48.916;2.336;2023-12-07T00:57:12;10.90;;;6.75;;
52972;SDS011;38837;48.916;2.336;2023-12-07T00:59:14;11.50;;;6.97;;
52972;SDS011;38837;48.916;2.336;2023-12-07T01:01:16;12.63;;;6.43;;
52972;SDS011;38837;48.916;2.336;2023-12-07T01:03:18;8.68;;;6.07;;
52972;SDS011;38837;48.916;2.336;2023-12-07T01:05:20;11.45;;;6.60;;
52972;SDS011;38837;48.916;2.336;2023-12-07T01:07:22;9.40;;;5.85;;
52972;SDS011;38837;48.916;2.336;2023-12-07T01:09:24;8.48;;;5.90;;
52972;SDS011;38837;48.916;2.336;2023-12-07T01:11:27;8.27;;;6.15;;
52972;SDS011;38837;48.916;2.336;2023-12-07T01:13:29;10.43;;;6.47;;
52972;SDS011;38837;48.916;2.336;2023-12-07T01:15:31;12.13;;;6.20;;
52972;SDS011;38837;48.916;2.336;2023-12-07T01:17:33;8.70;;;5.85;;
52972;SDS011;38837;48.916;2.336;2023-12-07T01:19:35;8.77;;;5.63;;
52972;SDS011;38837;48.916;2.336;2023-12-07T01:21:37;8.70;;;6.05;;
52972;SDS011;38837;48.916;2.336;2023-12-07T01:23:39;9.40;;;5.70;;
52972;SDS011;38837;48.916;2.336;2023-12-07T01:25:41;8.23;;;6.03;;
52972;SDS011;38837;48.916;2.336;2023-12-07T01:27:43;8.15;;;6.10;;
52972;SDS011;38837;48.916;2.336;2023-12-07T01:29:45;10.70;;;5.75;;
52972;SDS011;38837;48.916;2.336;2023-12-07T01:31:48;9.40;;;5.80;;
52972;SDS011;38837;48.916;2.336;2023-12-07T01:33:50;8.57;;;5.72;;
52972;SDS011;38837;48.916;2.336;2023-12-07T01:35:52;7.70;;;5.85;;
52972;SDS011;38837;48.916;2.336;2023-12-07T01:37:54;7.50;;;5.43;;
52972;SDS011;38837;48.916;2.336;2023-12-07T01:39:55;8.38;;;6.13;;
52972;SDS011;38837;48.916;2.336;2023-12-07T01:41:58;11.02;;;6.32;;
52972;SDS011;38837;48.916;2.336;2023-12-07T01:44:00;8.05;;;5.90;;
52972;SDS011;38837;48.916;2.336;2023-12-07T01:46:01;7.22;;;5.30;;
52972;SDS011;38837;48.916;2.336;2023-12-07T01:48:04;12.27;;;5.53;;
52972;SDS011;38837;48.916;2.336;2023-12-07T01:50:07;7.70;;;5.55;;
52972;SDS011;38837;48.916;2.336;2023-12-07T01:52:10;8.77;;;6.35;;
52972;SDS011;38837;48.916;2.336;2023-12-07T01:54:13;10.73;;;6.40;;
52972;SDS011;38837;48.916;2.336;2023-12-07T01:56:15;9.48;;;5.63;;
52972;SDS011;38837;48.916;2.336;2023-12-07T01:58:17;7.47;;;5.82;;
52972;SDS011;38837;48.916;2.336;2023-12-07T02:00:20;7.82;;;6.40;;
52972;SDS011;38837;48.916;2.336;2023-12-07T02:02:22;9.32;;;6.50;;
52972;SDS011;38837;48.916;2.336;2023-12-07T02:04:25;9.70;;;6.25;;
52972;SDS011;38837;48.916;2.336;2023-12-07T02:06:27;8.55;;;6.63;;
52972;SDS011;38837;48.916;2.336;2023-12-07T02:08:29;9.52;;;6.38;;
52972;SDS011;38837;48.916;2.336;2023-12-07T02:10:31;8.13;;;6.38;;
52972;SDS011;38837;48.916;2.336;2023-12-07T02:12:33;9.40;;;6.22;;
52972;SDS011;38837;48.916;2.336;2023-12-07T02:14:36;6.95;;;5.68;;
52972;SDS011;38837;48.916;2.336;2023-12-07T02:21:29;12.88;;;6.70;;
52972;SDS011;38837;48.916;2.336;2023-12-07T02:23:35;9.82;;;6.80;;
52972;SDS011;38837;48.916;2.336;2023-12-07T02:25:53;9.30;;;6.10;;
52972;SDS011;38837;48.916;2.336;2023-12-07T02:27:56;8.15;;;6.18;;
52972;SDS011;38837;48.916;2.336;2023-12-07T02:29:57;9.18;;;5.97;;
52972;SDS011;38837;48.916;2.336;2023-12-07T02:31:59;8.73;;;5.65;;
52972;SDS011;38837;48.916;2.336;2023-12-07T02:34:01;9.25;;;6.47;;
52972;SDS011;38837;48.916;2.336;2023-12-07T02:36:03;8.95;;;5.80;;
52972;SDS011;38837;48.916;2.336;2023-12-07T02:38:07;6.72;;;5.85;;
52972;SDS011;38837;48.916;2.336;2023-12-07T02:40:09;10.07;;;5.85;;
52972;SDS011;38837;48.916;2.336;2023-12-07T02:42:13;10.85;;;5.72;;
52972;SDS011;38837;48.916;2.336;2023-12-07T02:44:18;8.73;;;5.95;;
52972;SDS011;38837;48.916;2.336;2023-12-07T02:46:20;9.10;;;5.50;;
52972;SDS011;38837;48.916;2.336;2023-12-07T02:48:22;8.25;;;5.85;;
52972;SDS011;38837;48.916;2.336;2023-12-07T02:50:23;7.85;;;5.57;;
52972;SDS011;38837;48.916;2.336;2023-12-07T02:52:25;8.60;;;5.65;;
52972;SDS011;38837;48.916;2.336;2023-12-07T02:54:28;6.13;;;4.80;;
52972;SDS011;38837;48.916;2.336;2023-12-07T02:56:29;7.97;;;5.53;;
52972;SDS011;38837;48.916;2.336;2023-12-07T02:58:31;7.55;;;5.40;;
52972;SDS011;38837;48.916;2.336;2023-12-07T03:00:33;9.38;;;6.20;;
52972;SDS011;38837;48.916;2.336;2023-12-07T03:02:36;9.10;;;5.38;;
52972;SDS011;38837;48.916;2.336;2023-12-07T03:04:38;7.47;;;5.32;;
52972;SDS011;38837;48.916;2.336;2023-12-07T03:06:40;8.13;;;5.18;;
52972;SDS011;38837;48.916;2.336;2023-12-07T03:08:42;7.32;;;4.68;;
52972;SDS011;38837;48.916;2.336;2023-12-07T03:10:44;6.95;;;5.07;;
52972;SDS011;38837;48.916;2.336;2023-12-07T03:12:46;6.15;;;4.88;;
52972;SDS011;38837;48.916;2.336;2023-12-07T03:14:48;7.15;;;4.97;;
52972;SDS011;38837;48.916;2.336;2023-12-07T03:16:50;7.63;;;5.25;;
52972;SDS011;38837;48.916;2.336;2023-12-07T03:18:51;6.78;;;5.13;;
52972;SDS011;38837;48.916;2.336;2023-12-07T03:20:53;10.25;;;4.97;;
52972;SDS011;38837;48.916;2.336;2023-12-07T03:22:55;9.35;;;5.68;;
52972;SDS011;38837;48.916;2.336;2023-12-07T03:24:58;7.75;;;4.82;;
52972;SDS011;38837;48.916;2.336;2023-12-07T03:27:00;9.60;;;4.90;;
52972;SDS011;38837;48.916;2.336;2023-12-07T03:29:01;6.68;;;4.90;;
52972;SDS011;38837;48.916;2.336;2023-12-07T03:31:03;7.63;;;5.13;;
52972;SDS011;38837;48.916;2.336;2023-12-07T03:33:05;8.65;;;4.65;;
52972;SDS011;38837;48.916;2.336;2023-12-07T03:35:07;5.93;;;4.50;;
52972;SDS011;38837;48.916;2.336;2023-12-07T03:37:09;5.30;;;4.43;;
52972;SDS011;38837;48.916;2.336;2023-12-07T03:39:11;9.02;;;5.07;;
52972;SDS011;38837;48.916;2.336;2023-12-07T03:41:14;6.50;;;4.83;;
52972;SDS011;38837;48.916;2.336;2023-12-07T03:43:18;7.07;;;4.38;;
52972;SDS011;38837;48.916;2.336;2023-12-07T03:45:22;6.72;;;4.63;;
52972;SDS011;38837;48.916;2.336;2023-12-07T03:47:24;6.82;;;4.63;;
52972;SDS011;38837;48.916;2.336;2023-12-07T03:49:26;6.35;;;4.40;;
52972;SDS011;38837;48.916;2.336;2023-12-07T03:51:28;7.18;;;4.65;;
52972;SDS011;38837;48.916;2.336;2023-12-07T03:53:30;7.57;;;4.80;;
52972;SDS011;38837;48.916;2.336;2023-12-07T03:55:32;7.45;;;4.80;;
52972;SDS011;38837;48.916;2.336;2023-12-07T03:57:34;6.47;;;4.43;;
52972;SDS011;38837;48.916;2.336;2023-12-07T03:59:36;6.90;;;4.20;;
52972;SDS011;38837;48.916;2.336;2023-12-07T04:01:38;5.63;;;4.32;;
52972;SDS011;38837;48.916;2.336;2023-12-07T04:03:40;6.88;;;4.45;;
52972;SDS011;38837;48.916;2.336;2023-12-07T04:05:42;5.10;;;4.40;;
52972;SDS011;38837;48.916;2.336;2023-12-07T04:07:44;5.35;;;3.90;;
52972;SDS011;38837;48.916;2.336;2023-12-07T04:09:46;7.60;;;4.22;;
52972;SDS011;38837;48.916;2.336;2023-12-07T04:11:48;8.02;;;5.05;;
52972;SDS011;38837;48.916;2.336;2023-12-07T04:13:50;6.57;;;4.50;;
52972;SDS011;38837;48.916;2.336;2023-12-07T04:15:51;6.53;;;4.28;;
52972;SDS011;38837;48.916;2.336;2023-12-07T04:17:53;5.93;;;4.18;;
52972;SDS011;38837;48.916;2.336;2023-12-07T04:19:55;6.13;;;4.40;;
52972;SDS011;38837;48.916;2.336;2023-12-07T04:21:57;6.80;;;4.10;;
52972;SDS011;38837;48.916;2.336;2023-12-07T04:23:59;8.20;;;4.43;;
52972;SDS011;38837;48.916;2.336;2023-12-07T04:26:01;4.43;;;3.65;;
52972;SDS011;38837;48.916;2.336;2023-12-07T04:28:03;6.35;;;4.18;;
52972;SDS011;38837;48.916;2.336;2023-12-07T04:30:05;7.13;;;3.78;;
52972;SDS011;38837;48.916;2.336;2023-12-07T04:32:07;5.32;;;3.90;;
52972;SDS011;38837;48.916;2.336;2023-12-07T04:34:09;4.38;;;3.80;;
52972;SDS011;38837;48.916;2.336;2023-12-07T04:36:11;6.70;;;4.20;;
52972;SDS011;38837;48.916;2.336;2023-12-07T04:38:13;6.03;;;4.05;;
52972;SDS011;38837;48.916;2.336;2023-12-07T04:40:15;5.50;;;4.32;;
52972;SDS011;38837;48.916;2.336;2023-12-07T04:42:17;5.20;;;3.75;;
52972;SDS011;38837;48.916;2.336;2023-12-07T04:44:19;4.95;;;3.67;;
52972;SDS011;38837;48.916;2.336;2023-12-07T04:46:21;5.57;;;3.83;;
52972;SDS011;38837;48.916;2.336;2023-12-07T04:48:23;3.80;;;3.40;;
52972;SDS011;38837;48.916;2.336;2023-12-07T04:50:27;5.30;;;4.00;;
52972;SDS011;38837;48.916;2.336;2023-12-07T04:52:29;4.38;;;3.60;;
52972;SDS011;38837;48.916;2.336;2023-12-07T04:54:31;6.05;;;3.60;;
52972;SDS011;38837;48.916;2.336;2023-12-07T04:56:33;4.50;;;3.47;;
52972;SDS011;38837;48.916;2.336;2023-12-07T04:58:35;5.15;;;3.78;;
52972;SDS011;38837;48.916;2.336;2023-12-07T05:00:37;4.70;;;3.85;;
52972;SDS011;38837;48.916;2.336;2023-12-07T05:02:39;5.70;;;3.88;;
52972;SDS011;38837;48.916;2.336;2023-12-07T05:04:41;8.00;;;4.25;;
52972;SDS011;38837;48.916;2.336;2023-12-07T05:06:48;5.03;;;3.72;;
52972;SDS011;38837;48.916;2.336;2023-12-07T05:08:50;4.70;;;3.65;;
52972;SDS011;38837;48.916;2.336;2023-12-07T05:10:52;9.55;;;4.20;;
52972;SDS011;38837;48.916;2.336;2023-12-07T05:12:54;5.70;;;3.60;;
52972;SDS011;38837;48.916;2.336;2023-12-07T05:14:58;6.70;;;3.90;;
52972;SDS011;38837;48.916;2.336;2023-12-07T05:17:00;6.00;;;3.88;;
52972;SDS011;38837;48.916;2.336;2023-12-07T05:19:02;4.47;;;3.83;;
52972;SDS011;38837;48.916;2.336;2023-12-07T05:21:04;5.32;;;3.97;;
52972;SDS011;38837;48.916;2.336;2023-12-07T05:23:06;4.85;;;3.53;;
52972;SDS011;38837;48.916;2.336;2023-12-07T05:25:09;6.55;;;3.45;;
52972;SDS011;38837;48.916;2.336;2023-12-07T05:27:11;4.97;;;3.28;;
52972;SDS011;38837;48.916;2.336;2023-12-07T05:29:13;4.40;;;3.70;;
52972;SDS011;38837;48.916;2.336;2023-12-07T05:31:15;4.85;;;3.60;;
52972;SDS011;38837;48.916;2.336;2023-12-07T05:33:18;4.03;;;3.43;;
52972;SDS011;38837;48.916;2.336;2023-12-07T05:35:20;4.63;;;3.35;;
52972;SDS011;38837;48.916;2.336;2023-12-07T05:37:22;4.03;;;3.15;;
52972;SDS011;38837;48.916;2.336;2023-12-07T05:39:24;6.18;;;3.63;;
52972;SDS011;38837;48.916;2.336;2023-12-07T05:41:27;3.70;;;3.28;;
52972;SDS011;38837;48.916;2.336;2023-12-07T05:43:29;4.28;;;3.28;;
52972;SDS011;38837;48.916;2.336;2023-12-07T05:45:32;4.93;;;3.65;;
52972;SDS011;38837;48.916;2.336;2023-12-07T05:47:34;6.25;;;3.47;;
52972;SDS011;38837;48.916;2.336;2023-12-07T05:49:36;4.50;;;3.42;;
52972;SDS011;38837;48.916;2.336;2023-12-07T05:51:38;5.82;;;3.63;;
52972;SDS011;38837;48.916;2.336;2023-12-07T05:53:41;6.43;;;3.03;;
52972;SDS011;38837;48.916;2.336;2023-12-07T05:55:43;5.05;;;3.15;;
52972;SDS011;38837;48.916;2.336;2023-12-07T05:57:45;3.85;;;3.10;;
52972;SDS011;38837;48.916;2.336;2023-12-07T05:59:47;6.35;;;3.10;;
52972;SDS011;38837;48.916;2.336;2023-12-07T06:01:51;4.15;;;3.22;;
52972;SDS011;38837;48.916;2.336;2023-12-07T06:03:54;4.75;;;3.20;;
52972;SDS011;38837;48.916;2.336;2023-12-07T06:05:56;5.10;;;3.58;;
52972;SDS011;38837;48.916;2.336;2023-12-07T06:07:58;4.32;;;3.10;;
52972;SDS011;38837;48.916;2.336;2023-12-07T06:10:00;4.25;;;3.15;;
52972;SDS011;38837;48.916;2.336;2023-12-07T06:12:02;5.28;;;3.38;;
52972;SDS011;38837;48.916;2.336;2023-12-07T06:14:05;4.63;;;3.65;;
52972;SDS011;38837;48.916;2.336;2023-12-07T06:16:12;6.63;;;3.80;;
52972;SDS011;38837;48.916;2.336;2023-12-07T06:18:15;3.25;;;2.72;;
52972;SDS011;38837;48.916;2.336;2023-12-07T06:20:19;4.85;;;3.22;;
52972;SDS011;38837;48.916;2.336;2023-12-07T06:22:21;4.55;;;3.05;;
52972;SDS011;38837;48.916;2.336;2023-12-07T06:24:23;4.15;;;3.38;;
52972;SDS011;38837;48.916;2.336;2023-12-07T06:26:26;4.90;;;3.38;;
52972;SDS011;38837;48.916;2.336;2023-12-07T06:28:27;3.65;;;3.20;;
52972;SDS011;38837;48.916;2.336;2023-12-07T06:30:30;3.28;;;2.88;;
52972;SDS011;38837;48.916;2.336;2023-12-07T06:32:32;6.07;;;3.65;;
52972;SDS011;38837;48.916;2.336;2023-12-07T06:34:35;3.58;;;2.67;;
52972;SDS011;38837;48.916;2.336;2023-12-07T06:36:41;5.45;;;3.08;;
52972;SDS011;38837;48.916;2.336;2023-12-07T06:38:43;4.32;;;3.33;;
52972;SDS011;38837;48.916;2.336;2023-12-07T06:40:45;6.80;;;3.35;;
52972;SDS011;38837;48.916;2.336;2023-12-07T06:42:47;4.32;;;2.80;;
52972;SDS011;38837;48.916;2.336;2023-12-07T06:44:49;5.43;;;3.30;;
52972;SDS011;38837;48.916;2.336;2023-12-07T06:46:51;4.50;;;3.28;;
52972;SDS011;38837;48.916;2.336;2023-12-07T06:48:53;7.30;;;3.47;;
52972;SDS011;38837;48.916;2.336;2023-12-07T06:50:55;3.92;;;3.20;;
52972;SDS011;38837;48.916;2.336;2023-12-07T06:52:57;4.25;;;2.80;;
52972;SDS011;38837;48.916;2.336;2023-12-07T06:54:59;6.93;;;3.10;;
52972;SDS011;38837;48.916;2.336;2023-12-07T06:57:01;5.53;;;3.05;;
52972;SDS011;38837;48.916;2.336;2023-12-07T06:59:03;3.85;;;2.72;;
52972;SDS011;38837;48.916;2.336;2023-12-07T07:01:05;6.00;;;3.00;;
52972;SDS011;38837;48.916;2.336;2023-12-07T07:03:07;4.68;;;2.92;;
52972;SDS011;38837;48.916;2.336;2023-12-07T07:05:09;3.95;;;2.70;;
52972;SDS011;38837;48.916;2.336;2023-12-07T07:07:13;3.83;;;3.00;;
52972;SDS011;38837;48.916;2.336;2023-12-07T07:09:15;5.07;;;3.17;;
52972;SDS011;38837;48.916;2.336;2023-12-07T07:11:17;3.70;;;2.70;;
52972;SDS011;38837;48.916;2.336;2023-12-07T07:13:19;6.65;;;3.25;;
52972;SDS011;38837;48.916;2.336;2023-12-07T07:15:21;5.50;;;3.17;;
52972;SDS011;38837;48.916;2.336;2023-12-07T07:17:26;4.97;;;2.75;;
52972;SDS011;38837;48.916;2.336;2023-12-07T07:19:30;4.38;;;3.15;;
52972;SDS011;38837;48.916;2.336;2023-12-07T07:21:32;6.22;;;2.70;;
52972;SDS011;38837;48.916;2.336;2023-12-07T07:23:35;4.35;;;2.70;;
52972;SDS011;38837;48.916;2.336;2023-12-07T07:25:37;4.18;;;3.00;;
52972;SDS011;38837;48.916;2.336;2023-12-07T07:27:40;4.87;;;2.87;;
52972;SDS011;38837;48.916;2.336;2023-12-07T07:29:42;4.55;;;2.53;;
52972;SDS011;38837;48.916;2.336;2023-12-07T07:31:44;3.53;;;2.72;;
52972;SDS011;38837;48.916;2.336;2023-12-07T07:33:46;3.45;;;2.60;;
52972;SDS011;38837;48.916;2.336;2023-12-07T07:36:00;3.13;;;2.35;;
52972;SDS011;38837;48.916;2.336;2023-12-07T07:38:02;4.40;;;3.00;;
52972;SDS011;38837;48.916;2.336;2023-12-07T07:40:04;4.65;;;3.10;;
52972;SDS011;38837;48.916;2.336;2023-12-07T07:42:08;3.90;;;2.50;;
52972;SDS011;38837;48.916;2.336;2023-12-07T07:44:10;3.92;;;2.90;;
52972;SDS011;38837;48.916;2.336;2023-12-07T07:46:12;3.28;;;2.40;;
52972;SDS011;38837;48.916;2.336;2023-12-07T07:48:14;3.28;;;2.40;;
52972;SDS011;38837;48.916;2.336;2023-12-07T07:50:16;3.83;;;2.70;;
52972;SDS011;38837;48.916;2.336;2023-12-07T07:52:18;4.25;;;2.80;;
52972;SDS011;38837;48.916;2.336;2023-12-07T07:54:20;6.30;;;3.28;;
52972;SDS011;38837;48.916;2.336;2023-12-07T07:56:22;3.85;;;3.05;;
52972;SDS011;38837;48.916;2.336;2023-12-07T07:58:24;3.65;;;2.58;;
52972;SDS011;38837;48.916;2.336;2023-12-07T08:00:26;2.90;;;2.17;;
52972;SDS011;38837;48.916;2.336;2023-12-07T08:02:29;3.43;;;2.60;;
52972;SDS011;38837;48.916;2.336;2023-12-07T08:04:31;3.70;;;2.33;;
52972;SDS011;38837;48.916;2.336;2023-12-07T08:06:33;4.00;;;2.83;;
52972;SDS011;38837;48.916;2.336;2023-12-07T08:08:38;4.47;;;2.83;;
52972;SDS011;38837;48.916;2.336;2023-12-07T08:10:40;3.50;;;2.33;;
52972;SDS011;38837;48.916;2.336;2023-12-07T08:12:56;3.58;;;2.30;;
52972;SDS011;38837;48.916;2.336;2023-12-07T08:14:58;4.43;;;2.85;;
52972;SDS011;38837;48.916;2.336;2023-12-07T08:17:00;3.78;;;2.42;;
52972;SDS011;38837;48.916;2.336;2023-12-07T08:19:02;5.22;;;2.58;;
52972;SDS011;38837;48.916;2.336;2023-12-07T08:21:04;3.28;;;2.75;;
52972;SDS011;38837;48.916;2.336;2023-12-07T08:23:06;4.72;;;2.80;;
52972;SDS011;38837;48.916;2.336;2023-12-07T08:25:08;4.43;;;3.00;;
52972;SDS011;38837;48.916;2.336;2023-12-07T08:27:12;3.45;;;2.83;;
52972;SDS011;38837;48.916;2.336;2023-12-07T08:29:14;3.00;;;2.40;;
52972;SDS011;38837;48.916;2.336;2023-12-07T08:31:16;3.88;;;2.72;;
52972;SDS011;38837;48.916;2.336;2023-12-07T08:33:18;3.97;;;2.70;;
52972;SDS011;38837;48.916;2.336;2023-12-07T08:35:20;7.15;;;2.92;;
52972;SDS011;38837;48.916;2.336;2023-12-07T08:37:23;5.32;;;2.47;;
52972;SDS011;38837;48.916;2.336;2023-12-07T08:39:25;6.25;;;2.67;;
52972;SDS011;38837;48.916;2.336;2023-12-07T08:41:27;3.75;;;2.50;;
52972;SDS011;38837;48.916;2.336;2023-12-07T08:43:29;5.55;;;2.38;;
52972;SDS011;38837;48.916;2.336;2023-12-07T08:45:32;5.80;;;2.72;;
52972;SDS011;38837;48.916;2.336;2023-12-07T08:47:34;4.18;;;2.47;;
52972;SDS011;38837;48.916;2.336;2023-12-07T08:49:36;4.32;;;2.55;;
52972;SDS011;38837;48.916;2.336;2023-12-07T08:51:38;6.57;;;2.85;;
52972;SDS011;38837;48.916;2.336;2023-12-07T08:53:49;6.43;;;2.75;;
52972;SDS011;38837;48.916;2.336;2023-12-07T08:55:55;3.17;;;2.30;;
52972;SDS011;38837;48.916;2.336;2023-12-07T08:57:56;4.22;;;2.60;;
52972;SDS011;38837;48.916;2.336;2023-12-07T08:59:58;8.20;;;2.83;;
52972;SDS011;38837;48.916;2.336;2023-12-07T09:02:01;3.15;;;2.70;;
52972;SDS011;38837;48.916;2.336;2023-12-07T09:04:02;5.55;;;3.13;;
52972;SDS011;38837;48.916;2.336;2023-12-07T09:06:05;5.60;;;2.55;;
52972;SDS011;38837;48.916;2.336;2023-12-07T09:08:08;3.73;;;2.73;;
52972;SDS011;38837;48.916;2.336;2023-12-07T09:10:11;4.63;;;2.40;;
52972;SDS011;38837;48.916;2.336;2023-12-07T09:12:13;3.95;;;2.38;;
52972;SDS011;38837;48.916;2.336;2023-12-07T09:14:20;4.20;;;2.60;;
52972;SDS011;38837;48.916;2.336;2023-12-07T09:16:23;3.90;;;2.25;;
52972;SDS011;38837;48.916;2.336;2023-12-07T09:18:27;3.95;;;2.28;;
52972;SDS011;38837;48.916;2.336;2023-12-07T09:20:29;4.38;;;2.50;;
52972;SDS011;38837;48.916;2.336;2023-12-07T09:22:30;2.65;;;2.13;;
52972;SDS011;38837;48.916;2.336;2023-12-07T09:24:38;8.90;;;2.65;;
52972;SDS011;38837;48.916;2.336;2023-12-07T09:26:41;2.70;;;2.25;;
52972;SDS011;38837;48.916;2.336;2023-12-07T09:28:43;4.97;;;2.40;;
52972;SDS011;38837;48.916;2.336;2023-12-07T09:30:45;4.65;;;2.30;;
52972;SDS011;38837;48.916;2.336;2023-12-07T09:32:46;4.85;;;2.58;;
52972;SDS011;38837;48.916;2.336;2023-12-07T09:34:49;2.85;;;2.55;;
52972;SDS011;38837;48.916;2.336;2023-12-07T09:37:04;4.32;;;2.88;;
52972;SDS011;38837;48.916;2.336;2023-12-07T09:39:10;3.40;;;2.67;;
52972;SDS011;38837;48.916;2.336;2023-12-07T09:41:12;3.28;;;2.67;;
52972;SDS011;38837;48.916;2.336;2023-12-07T09:43:14;4.60;;;2.40;;
52972;SDS011;38837;48.916;2.336;2023-12-07T09:45:17;5.93;;;2.40;;
52972;SDS011;38837;48.916;2.336;2023-12-07T09:47:20;5.15;;;2.47;;
52972;SDS011;38837;48.916;2.336;2023-12-07T09:49:34;5.03;;;2.58;;
52972;SDS011;38837;48.916;2.336;2023-12-07T09:51:36;3.60;;;2.38;;
52972;SDS011;38837;48.916;2.336;2023-12-07T09:53:39;4.57;;;2.50;;
52972;SDS011;38837;48.916;2.336;2023-12-07T09:55:46;6.65;;;2.80;;
52972;SDS011;38837;48.916;2.336;2023-12-07T09:57:49;5.57;;;2.50;;
52972;SDS011;38837;48.916;2.336;2023-12-07T09:59:51;7.50;;;2.40;;
52972;SDS011;38837;48.916;2.336;2023-12-07T10:01:53;5.22;;;2.50;;
52972;SDS011;38837;48.916;2.336;2023-12-07T10:06:42;7.25;;;2.53;;
52972;SDS011;38837;48.916;2.336;2023-12-07T10:08:45;4.18;;;2.50;;
52972;SDS011;38837;48.916;2.336;2023-12-07T10:10:49;3.85;;;2.70;;
52972;SDS011;38837;48.916;2.336;2023-12-07T10:13:04;5.80;;;2.80;;
52972;SDS011;38837;48.916;2.336;2023-12-07T10:15:12;8.95;;;3.30;;
52972;SDS011;38837;48.916;2.336;2023-12-07T10:17:15;11.52;;;3.30;;
52972;SDS011;38837;48.916;2.336;2023-12-07T10:19:17;11.25;;;3.50;;
52972;SDS011;38837;48.916;2.336;2023-12-07T10:21:32;9.35;;;3.45;;
52972;SDS011;38837;48.916;2.336;2023-12-07T10:23:38;13.65;;;3.72;;
52972;SDS011;38837;48.916;2.336;2023-12-07T10:25:42;16.70;;;3.53;;
52972;SDS011;38837;48.916;2.336;2023-12-07T10:27:44;12.23;;;4.03;;
52972;SDS011;38837;48.916;2.336;2023-12-07T10:29:46;10.30;;;3.67;;
52972;SDS011;38837;48.916;2.336;2023-12-07T10:31:48;14.82;;;3.83;;
52972;SDS011;38837;48.916;2.336;2023-12-07T10:33:50;12.10;;;3.17;;
52972;SDS011;38837;48.916;2.336;2023-12-07T10:35:52;10.05;;;3.17;;
52972;SDS011;38837;48.916;2.336;2023-12-07T10:37:54;9.65;;;2.97;;
52972;SDS011;38837;48.916;2.336;2023-12-07T10:39:56;8.13;;;3.17;;
52972;SDS011;38837;48.916;2.336;2023-12-07T10:41:58;6.03;;;3.42;;
52972;SDS011;38837;48.916;2.336;2023-12-07T10:44:04;6.13;;;3.28;;
52972;SDS011;38837;48.916;2.336;2023-12-07T10:46:08;7.63;;;3.33;;
52972;SDS011;38837;48.916;2.336;2023-12-07T10:48:10;6.03;;;2.92;;
52972;SDS011;38837;48.916;2.336;2023-12-07T10:50:13;17.35;;;4.32;;
52972;SDS011;38837;48.916;2.336;2023-12-07T10:52:20;18.80;;;3.78;;
52972;SDS011;38837;48.916;2.336;2023-12-07T10:54:27;35.72;;;5.07;;
52972;SDS011;38837;48.916;2.336;2023-12-07T10:56:43;30.15;;;4.47;;
52972;SDS011;38837;48.916;2.336;2023-12-07T10:58:46;22.63;;;4.30;;
52972;SDS011;38837;48.916;2.336;2023-12-07T11:00:49;25.00;;;4.10;;
52972;SDS011;38837;48.916;2.336;2023-12-07T11:02:53;24.67;;;4.93;;
52972;SDS011;38837;48.916;2.336;2023-12-07T11:04:56;17.67;;;4.70;;
52972;SDS011;38837;48.916;2.336;2023-12-07T11:07:00;15.30;;;4.60;;
52972;SDS011;38837;48.916;2.336;2023-12-07T11:09:08;16.67;;;4.03;;
52972;SDS011;38837;48.916;2.336;2023-12-07T11:13:22;12.20;;;3.83;;
52972;SDS011;38837;48.916;2.336;2023-12-07T11:15:29;12.25;;;3.63;;
52972;SDS011;38837;48.916;2.336;2023-12-07T11:17:47;9.32;;;3.30;;
52972;SDS011;38837;48.916;2.336;2023-12-07T11:19:51;7.72;;;3.25;;
52972;SDS011;38837;48.916;2.336;2023-12-07T11:21:53;11.77;;;3.53;;
52972;SDS011;38837;48.916;2.336;2023-12-07T11:23:55;12.45;;;3.63;;
52972;SDS011;38837;48.916;2.336;2023-12-07T11:26:00;5.75;;;2.88;;
52972;SDS011;38837;48.916;2.336;2023-12-07T11:28:04;9.75;;;3.65;;
52972;SDS011;38837;48.916;2.336;2023-12-07T11:30:07;8.85;;;3.08;;
52972;SDS011;38837;48.916;2.336;2023-12-07T11:32:10;6.95;;;3.13;;
52972;SDS011;38837;48.916;2.336;2023-12-07T11:34:39;6.32;;;3.00;;
52972;SDS011;38837;48.916;2.336;2023-12-07T11:36:42;7.35;;;3.03;;
52972;SDS011;38837;48.916;2.336;2023-12-07T11:41:20;10.65;;;4.07;;
52972;SDS011;38837;48.916;2.336;2023-12-07T11:47:39;5.90;;;2.67;;
52972;SDS011;38837;48.916;2.336;2023-12-07T11:49:42;6.53;;;3.15;;
52972;SDS011;38837;48.916;2.336;2023-12-07T11:51:45;6.45;;;2.85;;
52972;SDS011;38837;48.916;2.336;2023-12-07T11:53:47;4.93;;;3.25;;
52972;SDS011;38837;48.916;2.336;2023-12-07T11:57:53;4.60;;;2.65;;
52972;SDS011;38837;48.916;2.336;2023-12-07T11:59:55;8.82;;;3.08;;
52972;SDS011;38837;48.916;2.336;2023-12-07T12:02:00;25.15;;;7.32;;
52972;SDS011;38837;48.916;2.336;2023-12-07T12:04:05;32.45;;;7.93;;
52972;SDS011;38837;48.916;2.336;2023-12-07T12:06:07;25.05;;;6.35;;
52972;SDS011;38837;48.916;2.336;2023-12-07T12:08:12;14.73;;;5.07;;
52972;SDS011;38837;48.916;2.336;2023-12-07T12:10:14;17.77;;;5.30;;
52972;SDS011;38837;48.916;2.336;2023-12-07T12:12:16;9.10;;;4.53;;
52972;SDS011;38837;48.916;2.336;2023-12-07T12:14:18;7.70;;;3.95;;
52972;SDS011;38837;48.916;2.336;2023-12-07T12:16:20;16.95;;;4.15;;
52972;SDS011;38837;48.916;2.336;2023-12-07T12:30:49;26.63;;;10.52;;
52972;SDS011;38837;48.916;2.336;2023-12-07T12:32:52;27.65;;;9.68;;
52972;SDS011;38837;48.916;2.336;2023-12-07T12:34:54;29.70;;;9.95;;
52972;SDS011;38837;48.916;2.336;2023-12-07T12:36:56;45.92;;;13.32;;
52972;SDS011;38837;48.916;2.336;2023-12-07T12:38:58;40.28;;;10.95;;
52972;SDS011;38837;48.916;2.336;2023-12-07T12:41:01;32.38;;;9.20;;
52972;SDS011;38837;48.916;2.336;2023-12-07T12:43:05;26.42;;;7.97;;
52972;SDS011;38837;48.916;2.336;2023-12-07T12:45:07;27.83;;;8.45;;
52972;SDS011;38837;48.916;2.336;2023-12-07T12:47:10;14.60;;;5.72;;
52972;SDS011;38837;48.916;2.336;2023-12-07T12:49:12;14.77;;;5.90;;